Wetterdaten: Woche 08.11.10 - 14.11.10 (KW45)
Datum Zeit Temperatur Luftfeuchte Luftdruck Niederschlag Windrichtung Sonnenschein Solar Wind
08.11.2010 00:00 4,5 C 96 % 996,6 hPa 0,0 l/m S-SW 0,00 h 0 W/m 11,2 km/h (2 Bft)
08.11.2010 01:00 4,3 C 96 % 995,6 hPa 0,0 l/m SW 0,00 h 0 W/m 6,9 km/h (2 Bft)
08.11.2010 02:00 4,2 C 96 % 994,9 hPa 0,0 l/m SW 0,00 h 0 W/m 7,9 km/h (2 Bft)
08.11.2010 03:00 4,3 C 95 % 994,0 hPa 0,0 l/m SW 0,00 h 0 W/m 6,1 km/h (2 Bft)
08.11.2010 04:00 4,2 C 95 % 993,1 hPa 0,0 l/m S-SW 0,00 h 0 W/m 5,7 km/h (1 Bft)
08.11.2010 05:00 4,1 C 96 % 992,3 hPa 0,0 l/m S-SW 0,00 h 0 W/m 3,9 km/h (1 Bft)
08.11.2010 06:00 3,8 C 96 % 991,0 hPa 0,0 l/m N 0,00 h 0 W/m 1,3 km/h (1 Bft)
08.11.2010 07:00 3,5 C 95 % 990,4 hPa 0,0 l/m S-SW 0,00 h 12 W/m 3,1 km/h (1 Bft)
08.11.2010 08:00 3,7 C 95 % 989,8 hPa 0,0 l/m SW 0,00 h 61 W/m 4,5 km/h (1 Bft)
08.11.2010 09:00 4,3 C 91 % 988,9 hPa 0,0 l/m SW 0,00 h 79 W/m 5,5 km/h (1 Bft)
08.11.2010 10:00 4,7 C 87 % 987,7 hPa 0,0 l/m SW 0,00 h 158 W/m 4,3 km/h (1 Bft)
08.11.2010 11:00 5,3 C 84 % 986,4 hPa 0,0 l/m SW 0,00 h 174 W/m 7,4 km/h (2 Bft)
08.11.2010 12:00 5,2 C 86 % 984,9 hPa 0,0 l/m SW 0,00 h 155 W/m 9,2 km/h (2 Bft)
08.11.2010 13:00 5,5 C 85 % 983,6 hPa 0,2 l/m S-SW 0,17 h 181 W/m 8,6 km/h (2 Bft)
08.11.2010 14:00 5,8 C 81 % 982,3 hPa 0,0 l/m S 0,17 h 144 W/m 8,3 km/h (2 Bft)
08.11.2010 15:00 5,6 C 80 % 981,4 hPa 0,0 l/m SW 0,58 h 108 W/m 9,9 km/h (2 Bft)
08.11.2010 16:00 5,0 C 83 % 980,6 hPa 0,0 l/m SW 0,00 h 14 W/m 4,4 km/h (1 Bft)
08.11.2010 17:00 4,0 C 86 % 979,8 hPa 0,0 l/m N 0,00 h 0 W/m 1,1 km/h (0 Bft)
08.11.2010 18:00 3,0 C 89 % 979,5 hPa 0,0 l/m N 0,00 h 0 W/m 0,3 km/h (0 Bft)
08.11.2010 19:00 2,4 C 91 % 979,3 hPa 0,0 l/m N 0,00 h 0 W/m 0,7 km/h (0 Bft)
08.11.2010 20:00 1,7 C 92 % 979,1 hPa 0,0 l/m N 0,00 h 0 W/m 0,7 km/h (0 Bft)
08.11.2010 21:00 2,0 C 95 % 979,4 hPa 0,0 l/m N 0,00 h 0 W/m 0,7 km/h (0 Bft)
08.11.2010 22:00 2,3 C 95 % 979,4 hPa 0,0 l/m N 0,00 h 0 W/m 1,3 km/h (1 Bft)
08.11.2010 23:00 2,4 C 95 % 979,6 hPa 0,0 l/m SW 0,00 h 0 W/m 2,1 km/h (1 Bft)
09.11.2010 00:00 2,4 C 95 % 979,3 hPa 0,0 l/m SW 0,00 h 0 W/m 4,7 km/h (1 Bft)
09.11.2010 01:00 2,7 C 95 % 979,3 hPa 0,0 l/m SW 0,00 h 0 W/m 7,9 km/h (2 Bft)
09.11.2010 02:00 2,2 C 95 % 979,2 hPa 0,0 l/m N 0,00 h 0 W/m 2,9 km/h (1 Bft)
09.11.2010 03:00 1,8 C 95 % 979,1 hPa 0,0 l/m N 0,00 h 0 W/m 1,2 km/h (1 Bft)
09.11.2010 04:00 1,6 C 96 % 979,1 hPa 0,0 l/m N 0,00 h 0 W/m 0,4 km/h (0 Bft)
09.11.2010 05:00 1,4 C 96 % 979,4 hPa 0,0 l/m N 0,00 h 0 W/m 0,3 km/h (0 Bft)
09.11.2010 06:00 1,4 C 96 % 979,7 hPa 0,0 l/m N 0,00 h 0 W/m 0,1 km/h (0 Bft)
09.11.2010 07:00 1,3 C 96 % 980,3 hPa 0,0 l/m N 0,08 h 17 W/m 0,0 km/h (0 Bft)
09.11.2010 08:00 1,6 C 97 % 980,9 hPa 0,0 l/m N 0,00 h 63 W/m 0,3 km/h (0 Bft)
09.11.2010 09:00 3,5 C 96 % 981,2 hPa 0,0 l/m O 0,00 h 106 W/m 3,9 km/h (1 Bft)
09.11.2010 10:00 5,0 C 92 % 981,1 hPa 0,0 l/m S 0,17 h 176 W/m 3,6 km/h (1 Bft)
09.11.2010 11:00 6,6 C 85 % 981,0 hPa 0,0 l/m SO 0,42 h 278 W/m 4,8 km/h (1 Bft)
09.11.2010 12:00 8,1 C 77 % 980,6 hPa 0,0 l/m SO 0,83 h 344 W/m 4,8 km/h (1 Bft)
09.11.2010 13:00 9,6 C 69 % 980,3 hPa 0,0 l/m O-SO 0,92 h 355 W/m 6,8 km/h (2 Bft)
09.11.2010 14:00 10,0 C 69 % 980,1 hPa 0,0 l/m O-NO 0,75 h 214 W/m 9,3 km/h (2 Bft)
09.11.2010 15:00 9,8 C 68 % 980,3 hPa 0,0 l/m O 0,25 h 80 W/m 7,2 km/h (2 Bft)
09.11.2010 16:00 7,8 C 77 % 980,8 hPa 0,0 l/m N 0,00 h 12 W/m 1,6 km/h (1 Bft)
09.11.2010 17:00 5,8 C 86 % 981,1 hPa 0,0 l/m N 0,00 h 0 W/m 2,5 km/h (1 Bft)
09.11.2010 18:00 5,5 C 87 % 981,7 hPa 0,0 l/m N 0,00 h 0 W/m 1,6 km/h (1 Bft)
09.11.2010 19:00 4,8 C 89 % 982,2 hPa 0,0 l/m N 0,00 h 0 W/m 0,1 km/h (0 Bft)
09.11.2010 20:00 4,3 C 91 % 982,6 hPa 0,0 l/m N 0,00 h 0 W/m 1,6 km/h (1 Bft)
09.11.2010 21:00 4,2 C 93 % 982,8 hPa 0,0 l/m N 0,00 h 0 W/m 0,1 km/h (0 Bft)
09.11.2010 22:00 4,3 C 93 % 983,1 hPa 0,0 l/m N 0,00 h 0 W/m 0,0 km/h (0 Bft)
09.11.2010 23:00 4,3 C 93 % 983,6 hPa 0,0 l/m N 0,00 h 0 W/m 0,5 km/h (0 Bft)
10.11.2010 00:00 4,3 C 94 % 984,3 hPa 0,0 l/m N 0,00 h 0 W/m 1,3 km/h (1 Bft)
10.11.2010 01:00 4,0 C 93 % 984,7 hPa 0,0 l/m N 0,00 h 0 W/m 0,3 km/h (0 Bft)
10.11.2010 02:00 3,2 C 93 % 985,0 hPa 0,0 l/m N 0,00 h 0 W/m 0,0 km/h (0 Bft)
10.11.2010 03:00 2,6 C 93 % 985,2 hPa 0,0 l/m N 0,00 h 0 W/m 0,0 km/h (0 Bft)
10.11.2010 04:00 2,2 C 94 % 985,8 hPa 0,0 l/m N 0,00 h 0 W/m 0,1 km/h (0 Bft)
10.11.2010 05:00 2,1 C 95 % 986,4 hPa 0,0 l/m N 0,00 h 0 W/m 0,1 km/h (0 Bft)
10.11.2010 06:00 1,7 C 95 % 987,1 hPa 0,0 l/m N 0,00 h 0 W/m 0,1 km/h (0 Bft)
10.11.2010 07:00 1,2 C 95 % 988,0 hPa 0,0 l/m N 0,08 h 22 W/m 0,0 km/h (0 Bft)
10.11.2010 08:00 1,5 C 96 % 989,0 hPa 0,0 l/m N 0,00 h 45 W/m 1,6 km/h (1 Bft)
10.11.2010 09:00 2,9 C 97 % 989,9 hPa 0,0 l/m N 0,00 h 78 W/m 0,8 km/h (0 Bft)
10.11.2010 10:00 4,8 C 97 % 990,5 hPa 0,0 l/m S-SO 0,00 h 119 W/m 4,5 km/h (1 Bft)
10.11.2010 11:00 7,3 C 91 % 991,0 hPa 0,0 l/m S-SW 0,42 h 252 W/m 7,5 km/h (2 Bft)
10.11.2010 12:00 9,7 C 78 % 991,2 hPa 0,0 l/m SW 0,50 h 270 W/m 6,7 km/h (2 Bft)
10.11.2010 13:00 10,4 C 77 % 991,4 hPa 0,0 l/m SW 0,58 h 292 W/m 7,8 km/h (2 Bft)
10.11.2010 14:00 10,1 C 79 % 992,0 hPa 0,0 l/m S-SW 0,08 h 111 W/m 7,8 km/h (2 Bft)
10.11.2010 15:00 9,6 C 79 % 993,0 hPa 0,0 l/m S-SW 0,00 h 46 W/m 4,8 km/h (1 Bft)
10.11.2010 16:00 9,1 C 78 % 994,2 hPa 0,0 l/m W-SW 0,00 h 19 W/m 9,9 km/h (2 Bft)
10.11.2010 17:00 8,7 C 79 % 995,4 hPa 0,0 l/m W-SW 0,00 h 0 W/m 12,8 km/h (3 Bft)
10.11.2010 18:00 7,7 C 85 % 996,9 hPa 0,4 l/m W-SW 0,00 h 0 W/m 16,1 km/h (3 Bft)
10.11.2010 19:00 6,5 C 89 % 998,1 hPa 0,0 l/m W-SW 0,00 h 0 W/m 16,2 km/h (3 Bft)
10.11.2010 20:00 6,3 C 91 % 999,3 hPa 0,0 l/m SW 0,00 h 0 W/m 12,9 km/h (3 Bft)
10.11.2010 21:00 6,3 C 91 % 1000,5 hPa 0,2 l/m W-SW 0,00 h 0 W/m 20,5 km/h (4 Bft)
10.11.2010 22:00 6,2 C 90 % 1002,1 hPa 0,2 l/m W 0,00 h 0 W/m 21,4 km/h (4 Bft)
10.11.2010 23:00 5,7 C 91 % 1004,0 hPa 0,4 l/m W-NW 0,00 h 0 W/m 16,9 km/h (3 Bft)
11.11.2010 00:00 5,2 C 89 % 1005,8 hPa 0,0 l/m W-NW 0,00 h 0 W/m 15,2 km/h (3 Bft)
11.11.2010 01:00 4,9 C 87 % 1007,3 hPa 0,0 l/m W 0,00 h 0 W/m 12,8 km/h (3 Bft)
11.11.2010 02:00 4,6 C 87 % 1008,5 hPa 0,0 l/m W-SW 0,00 h 0 W/m 9,9 km/h (2 Bft)
11.11.2010 03:00 4,1 C 88 % 1009,3 hPa 0,0 l/m W 0,00 h 0 W/m 9,5 km/h (2 Bft)
11.11.2010 04:00 4,1 C 89 % 1010,0 hPa 0,0 l/m SW 0,00 h 0 W/m 10,6 km/h (2 Bft)
11.11.2010 05:00 3,7 C 91 % 1010,5 hPa 0,0 l/m W-SW 0,00 h 0 W/m 11,9 km/h (2 Bft)
11.11.2010 06:00 3,3 C 91 % 1011,2 hPa 0,0 l/m W-SW 0,00 h 0 W/m 11,2 km/h (2 Bft)
11.11.2010 07:00 2,8 C 91 % 1011,7 hPa 0,0 l/m SW 0,00 h 11 W/m 6,3 km/h (2 Bft)
11.11.2010 08:00 2,7 C 93 % 1012,1 hPa 0,0 l/m W-SW 0,00 h 37 W/m 7,6 km/h (2 Bft)
11.11.2010 09:00 4,0 C 89 % 1012,5 hPa 0,0 l/m SW 0,00 h 49 W/m 16,0 km/h (3 Bft)
11.11.2010 10:00 5,5 C 80 % 1012,2 hPa 0,0 l/m SW 0,33 h 168 W/m 19,2 km/h (3 Bft)
11.11.2010 11:00 6,6 C 72 % 1011,7 hPa 0,0 l/m S-SW 0,92 h 378 W/m 25,3 km/h (4 Bft)
11.11.2010 12:00 7,0 C 68 % 1010,8 hPa 0,0 l/m W-SW 0,83 h 362 W/m 24,8 km/h (4 Bft)
11.11.2010 13:00 7,0 C 68 % 1009,9 hPa 0,0 l/m W-SW 0,75 h 231 W/m 26,8 km/h (4 Bft)
11.11.2010 14:00 7,2 C 69 % 1009,2 hPa 0,0 l/m W-SW 0,33 h 161 W/m 25,3 km/h (4 Bft)
11.11.2010 15:00 7,0 C 72 % 1008,3 hPa 0,0 l/m SW 0,33 h 73 W/m 17,0 km/h (3 Bft)
11.11.2010 16:00 6,3 C 75 % 1007,6 hPa 0,0 l/m SW 0,00 h 14 W/m 15,4 km/h (3 Bft)
11.11.2010 17:00 6,1 C 76 % 1006,9 hPa 0,0 l/m SW 0,00 h 0 W/m 17,8 km/h (3 Bft)
11.11.2010 18:00 6,4 C 75 % 1005,9 hPa 0,0 l/m SW 0,00 h 0 W/m 21,3 km/h (4 Bft)
11.11.2010 19:00 6,8 C 72 % 1005,0 hPa 0,0 l/m SW 0,00 h 0 W/m 28,4 km/h (4 Bft)
11.11.2010 20:00 6,8 C 76 % 1003,9 hPa 0,4 l/m W-SW 0,00 h 0 W/m 33,0 km/h (5 Bft)
11.11.2010 21:00 5,6 C 87 % 1003,3 hPa 1,4 l/m SW 0,00 h 0 W/m 30,3 km/h (5 Bft)
11.11.2010 22:00 5,3 C 91 % 1002,5 hPa 0,6 l/m SW 0,00 h 0 W/m 29,6 km/h (5 Bft)
11.11.2010 23:00 5,9 C 93 % 1001,8 hPa 0,2 l/m W-SW 0,00 h 0 W/m 26,4 km/h (4 Bft)
12.11.2010 00:00 6,3 C 93 % 1001,0 hPa 0,2 l/m SW 0,00 h 0 W/m 30,5 km/h (5 Bft)
12.11.2010 01:00 6,3 C 94 % 1000,3 hPa 0,0 l/m SW 0,00 h 0 W/m 29,6 km/h (5 Bft)
12.11.2010 02:00 7,7 C 92 % 1000,1 hPa 0,0 l/m SW 0,00 h 0 W/m 45,6 km/h (6 Bft)
12.11.2010 03:00 8,8 C 89 % 999,9 hPa 0,0 l/m W 0,00 h 0 W/m 44,6 km/h (6 Bft)
12.11.2010 04:00 9,5 C 88 % 1000,0 hPa 0,0 l/m W-SW 0,00 h 0 W/m 43,0 km/h (6 Bft)
12.11.2010 05:00 9,7 C 91 % 1000,5 hPa 0,4 l/m W-SW 0,00 h 0 W/m 43,6 km/h (6 Bft)
12.11.2010 06:00 10,0 C 91 % 1000,9 hPa 1,4 l/m W-SW 0,00 h 0 W/m 35,1 km/h (5 Bft)
12.11.2010 07:00 9,8 C 94 % 1001,3 hPa 1,4 l/m W-SW 0,00 h 11 W/m 28,4 km/h (4 Bft)
12.11.2010 08:00 10,2 C 93 % 1002,3 hPa 0,0 l/m W-SW 0,00 h 26 W/m 26,5 km/h (4 Bft)
12.11.2010 09:00 10,5 C 92 % 1002,8 hPa 0,0 l/m W-SW 0,00 h 41 W/m 23,1 km/h (4 Bft)
12.11.2010 10:00 11,0 C 89 % 1003,5 hPa 0,0 l/m W 0,00 h 51 W/m 35,1 km/h (5 Bft)
12.11.2010 11:00 11,0 C 83 % 1004,0 hPa 0,0 l/m W-SW 0,00 h 57 W/m 35,7 km/h (5 Bft)
12.11.2010 12:00 10,7 C 75 % 1004,3 hPa 0,0 l/m W-SW 0,00 h 71 W/m 34,1 km/h (5 Bft)
12.11.2010 13:00 10,3 C 80 % 1004,9 hPa 0,0 l/m W-SW 0,00 h 100 W/m 32,1 km/h (5 Bft)
12.11.2010 14:00 10,4 C 80 % 1005,3 hPa 0,0 l/m SW 0,00 h 101 W/m 32,2 km/h (5 Bft)
12.11.2010 15:00 10,3 C 78 % 1005,5 hPa 0,0 l/m W-SW 0,00 h 45 W/m 29,0 km/h (5 Bft)
12.11.2010 16:00 10,3 C 82 % 1005,6 hPa 0,0 l/m W-SW 0,00 h 5 W/m 27,1 km/h (4 Bft)
12.11.2010 17:00 9,7 C 92 % 1005,1 hPa 0,2 l/m SW 0,00 h 0 W/m 15,0 km/h (3 Bft)
12.11.2010 18:00 9,5 C 96 % 1004,7 hPa 0,0 l/m SW 0,00 h 0 W/m 18,6 km/h (3 Bft)
12.11.2010 19:00 11,7 C 96 % 1004,3 hPa 0,0 l/m W-SW 0,00 h 0 W/m 32,2 km/h (5 Bft)
12.11.2010 20:00 13,0 C 90 % 1004,1 hPa 0,0 l/m W-SW 0,00 h 0 W/m 37,0 km/h (5 Bft)
12.11.2010 21:00 13,4 C 83 % 1004,4 hPa 0,0 l/m W 0,00 h 0 W/m 43,3 km/h (6 Bft)
12.11.2010 22:00 13,2 C 79 % 1005,0 hPa 0,0 l/m W 0,00 h 0 W/m 35,9 km/h (5 Bft)
12.11.2010 23:00 13,2 C 78 % 1005,2 hPa 0,0 l/m W 0,00 h 0 W/m 33,3 km/h (5 Bft)
13.11.2010 00:00 13,0 C 78 % 1004,7 hPa 0,0 l/m SW 0,00 h 0 W/m 29,8 km/h (5 Bft)
13.11.2010 01:00 13,0 C 79 % 1005,0 hPa 0,0 l/m W 0,00 h 0 W/m 26,7 km/h (4 Bft)
13.11.2010 02:00 13,3 C 75 % 1004,8 hPa 0,0 l/m W 0,00 h 0 W/m 28,6 km/h (4 Bft)
13.11.2010 03:00 13,1 C 76 % 1005,0 hPa 0,0 l/m W-SW 0,00 h 0 W/m 23,0 km/h (4 Bft)
13.11.2010 04:00 12,2 C 80 % 1005,1 hPa 0,0 l/m W-SW 0,00 h 0 W/m 20,5 km/h (4 Bft)
13.11.2010 05:00 12,1 C 81 % 1005,2 hPa 0,0 l/m W-SW 0,00 h 0 W/m 22,7 km/h (4 Bft)
13.11.2010 06:00 12,1 C 80 % 1005,2 hPa 0,0 l/m W-SW 0,00 h 0 W/m 19,4 km/h (3 Bft)
13.11.2010 07:00 11,5 C 83 % 1005,2 hPa 0,0 l/m W-SW 0,00 h 16 W/m 17,3 km/h (3 Bft)
13.11.2010 08:00 12,9 C 78 % 1005,8 hPa 0,0 l/m W-SW 0,00 h 41 W/m 31,0 km/h (5 Bft)
13.11.2010 09:00 13,7 C 75 % 1006,0 hPa 0,0 l/m SW 0,00 h 74 W/m 31,9 km/h (5 Bft)
13.11.2010 10:00 14,5 C 72 % 1005,9 hPa 0,0 l/m W-SW 0,17 h 164 W/m 30,2 km/h (5 Bft)
13.11.2010 11:00 15,6 C 67 % 1005,4 hPa 0,0 l/m W 0,92 h 350 W/m 32,7 km/h (5 Bft)
13.11.2010 12:00 16,2 C 63 % 1004,7 hPa 0,0 l/m W 0,92 h 344 W/m 31,0 km/h (5 Bft)
13.11.2010 13:00 16,5 C 62 % 1004,2 hPa 0,0 l/m W-NW 1,00 h 375 W/m 32,9 km/h (5 Bft)
13.11.2010 14:00 16,5 C 61 % 1003,8 hPa 0,0 l/m W 0,75 h 196 W/m 20,9 km/h (4 Bft)
13.11.2010 15:00 15,9 C 65 % 1003,5 hPa 0,0 l/m W-SW 0,42 h 97 W/m 18,5 km/h (3 Bft)
13.11.2010 16:00 14,3 C 71 % 1003,4 hPa 0,0 l/m W-SW 0,00 h 15 W/m 12,5 km/h (3 Bft)
13.11.2010 17:00 12,7 C 78 % 1003,3 hPa 0,0 l/m W-SW 0,00 h 0 W/m 10,1 km/h (2 Bft)
13.11.2010 18:00 12,0 C 80 % 1003,3 hPa 0,0 l/m SW 0,00 h 0 W/m 9,5 km/h (2 Bft)
13.11.2010 19:00 11,7 C 80 % 1003,1 hPa 0,0 l/m W-SW 0,00 h 0 W/m 13,6 km/h (3 Bft)
13.11.2010 20:00 11,8 C 79 % 1003,2 hPa 0,0 l/m W-SW 0,00 h 0 W/m 11,7 km/h (2 Bft)
13.11.2010 21:00 10,9 C 81 % 1003,4 hPa 0,0 l/m SW 0,00 h 0 W/m 10,2 km/h (2 Bft)
13.11.2010 22:00 9,5 C 84 % 1003,5 hPa 0,0 l/m N 0,00 h 0 W/m 0,7 km/h (0 Bft)
13.11.2010 23:00 8,1 C 89 % 1003,4 hPa 0,0 l/m N 0,00 h 0 W/m 2,4 km/h (1 Bft)
14.11.2010 00:00 7,7 C 91 % 1003,3 hPa 0,0 l/m S-SW 0,00 h 0 W/m 6,3 km/h (2 Bft)
14.11.2010 01:00 7,4 C 90 % 1003,2 hPa 0,0 l/m N 0,00 h 0 W/m 2,7 km/h (1 Bft)
14.11.2010 02:00 6,6 C 91 % 1003,3 hPa 0,0 l/m N 0,00 h 0 W/m 1,2 km/h (1 Bft)
14.11.2010 03:00 5,7 C 91 % 1003,2 hPa 0,0 l/m N 0,00 h 0 W/m 0,4 km/h (0 Bft)
14.11.2010 04:00 5,0 C 92 % 1002,9 hPa 0,0 l/m N 0,00 h 0 W/m 0,5 km/h (0 Bft)
14.11.2010 05:00 4,5 C 93 % 1002,5 hPa 0,0 l/m N 0,00 h 0 W/m 0,3 km/h (0 Bft)
14.11.2010 06:00 4,3 C 94 % 1002,2 hPa 0,0 l/m N 0,00 h 0 W/m 1,1 km/h (0 Bft)
14.11.2010 07:00 4,1 C 95 % 1002,1 hPa 0,0 l/m N 0,00 h 15 W/m 1,1 km/h (0 Bft)
14.11.2010 08:00 4,4 C 96 % 1002,6 hPa 0,0 l/m N 0,00 h 26 W/m 1,7 km/h (1 Bft)
14.11.2010 09:00 6,5 C 98 % 1002,7 hPa 0,0 l/m N 0,00 h 42 W/m 1,5 km/h (1 Bft)
14.11.2010 10:00 11,4 C 82 % 1003,1 hPa 0,0 l/m NO 0,33 h 151 W/m 6,2 km/h (2 Bft)
14.11.2010 11:00 14,7 C 64 % 1003,3 hPa 0,0 l/m SW 1,00 h 346 W/m 8,7 km/h (2 Bft)
14.11.2010 12:00 16,0 C 60 % 1002,8 hPa 0,0 l/m SW 0,92 h 336 W/m 11,4 km/h (2 Bft)
14.11.2010 13:00 16,8 C 61 % 1002,6 hPa 0,0 l/m S-SW 1,00 h 357 W/m 8,6 km/h (2 Bft)
14.11.2010 14:00 17,4 C 58 % 1002,6 hPa 0,0 l/m S-SO 0,50 h 171 W/m 4,8 km/h (1 Bft)
14.11.2010 15:00 17,1 C 54 % 1002,6 hPa 0,0 l/m W 0,08 h 71 W/m 5,3 km/h (1 Bft)
14.11.2010 16:00 14,7 C 61 % 1003,0 hPa 0,0 l/m W 0,00 h 19 W/m 4,2 km/h (1 Bft)
14.11.2010 17:00 11,4 C 77 % 1004,0 hPa 0,0 l/m N 0,00 h 0 W/m 0,4 km/h (0 Bft)
14.11.2010 18:00 9,9 C 85 % 1005,0 hPa 0,0 l/m N 0,00 h 0 W/m 0,8 km/h (0 Bft)
14.11.2010 19:00 9,4 C 85 % 1005,8 hPa 0,0 l/m N 0,00 h 0 W/m 0,3 km/h (0 Bft)
14.11.2010 20:00 8,3 C 87 % 1006,3 hPa 0,0 l/m N 0,00 h 0 W/m 0,1 km/h (0 Bft)
14.11.2010 21:00 7,8 C 90 % 1006,7 hPa 0,0 l/m N 0,00 h 0 W/m 0,0 km/h (0 Bft)
14.11.2010 22:00 7,9 C 92 % 1007,1 hPa 0,0 l/m N 0,00 h 0 W/m 0,3 km/h (0 Bft)
14.11.2010 23:00 7,9 C 92 % 1007,4 hPa 0,0 l/m N 0,00 h 0 W/m 0,5 km/h (0 Bft)
Min-Datum _ 10.11.10 14.11.10 08.11.10 - - - - 08.11.10
_ Min-Zeit 07:45 15:00 20:20 - - - - 06:10
Minimum _ 1,1 C 53 % 978,9 hPa - - - - 0,0 km/h (0 Bft)
Max-Datum _ 14.11.10 12.11.10 11.11.10 11.11.10 - 08.11.10 09.11.10 12.11.10
_ Max-Zeit 15:00 18:55 09:10 21:00 - 13:45 13:00 20:25
Maximum _ 17,7 C 98 % 1012,6 hPa 1,4 l/m - 0,08 h 517 W/m 64,4 km/h
W-SW (8 Bft)
Durchschnitt _ 7,5 C 85 % 996,9 hPa #7,6 l/m W-SW #17:30 h 131 W/m 12,8 km/h (3 Bft)